sensor_id;sensor_type;location;lat;lon;timestamp;P1;durP1;ratioP1;P2;durP2;ratioP2
56999;SDS011;42891;50.006;21.964;2023-10-09T00:02:45;5.25;;;3.38;;
56999;SDS011;42891;50.006;21.964;2023-10-09T00:06:45;7.07;;;3.78;;
56999;SDS011;42891;50.006;21.964;2023-10-09T00:10:47;6.80;;;3.58;;
56999;SDS011;42891;50.006;21.964;2023-10-09T00:14:53;7.57;;;3.55;;
56999;SDS011;42891;50.006;21.964;2023-10-09T00:19:07;8.05;;;3.50;;
56999;SDS011;42891;50.006;21.964;2023-10-09T00:23:14;8.10;;;3.67;;
56999;SDS011;42891;50.006;21.964;2023-10-09T00:27:16;6.50;;;3.40;;
56999;SDS011;42891;50.006;21.964;2023-10-09T00:31:19;6.20;;;3.80;;
56999;SDS011;42891;50.006;21.964;2023-10-09T00:35:37;5.50;;;3.27;;
56999;SDS011;42891;50.006;21.964;2023-10-09T00:39:46;5.07;;;3.22;;
56999;SDS011;42891;50.006;21.964;2023-10-09T00:43:48;6.55;;;3.70;;
56999;SDS011;42891;50.006;21.964;2023-10-09T00:47:59;5.30;;;3.25;;
56999;SDS011;42891;50.006;21.964;2023-10-09T00:52:02;6.65;;;3.50;;
56999;SDS011;42891;50.006;21.964;2023-10-09T00:56:03;8.27;;;3.63;;
56999;SDS011;42891;50.006;21.964;2023-10-09T01:00:27;7.50;;;3.20;;
56999;SDS011;42891;50.006;21.964;2023-10-09T01:04:46;7.18;;;3.15;;
56999;SDS011;42891;50.006;21.964;2023-10-09T01:08:46;5.65;;;2.90;;
56999;SDS011;42891;50.006;21.964;2023-10-09T01:13:05;5.88;;;3.85;;
56999;SDS011;42891;50.006;21.964;2023-10-09T01:17:09;5.05;;;3.50;;
56999;SDS011;42891;50.006;21.964;2023-10-09T01:21:11;6.95;;;3.25;;
56999;SDS011;42891;50.006;21.964;2023-10-09T01:25:13;7.80;;;4.00;;
56999;SDS011;42891;50.006;21.964;2023-10-09T01:29:15;6.65;;;3.63;;
56999;SDS011;42891;50.006;21.964;2023-10-09T01:33:19;6.30;;;3.57;;
56999;SDS011;42891;50.006;21.964;2023-10-09T01:37:27;6.35;;;4.10;;
56999;SDS011;42891;50.006;21.964;2023-10-09T01:41:30;6.88;;;3.78;;
56999;SDS011;42891;50.006;21.964;2023-10-09T01:45:34;8.20;;;3.95;;
56999;SDS011;42891;50.006;21.964;2023-10-09T01:49:42;6.20;;;3.33;;
56999;SDS011;42891;50.006;21.964;2023-10-09T01:53:44;6.43;;;3.50;;
56999;SDS011;42891;50.006;21.964;2023-10-09T01:57:47;7.13;;;3.95;;
56999;SDS011;42891;50.006;21.964;2023-10-09T02:01:48;6.53;;;3.80;;
56999;SDS011;42891;50.006;21.964;2023-10-09T02:05:48;7.70;;;3.63;;
56999;SDS011;42891;50.006;21.964;2023-10-09T02:09:50;6.60;;;3.60;;
56999;SDS011;42891;50.006;21.964;2023-10-09T02:13:51;5.68;;;3.45;;
56999;SDS011;42891;50.006;21.964;2023-10-09T02:17:55;6.60;;;4.00;;
56999;SDS011;42891;50.006;21.964;2023-10-09T02:22:01;5.53;;;3.70;;
56999;SDS011;42891;50.006;21.964;2023-10-09T02:26:15;8.50;;;3.90;;
56999;SDS011;42891;50.006;21.964;2023-10-09T02:30:25;11.23;;;4.70;;
56999;SDS011;42891;50.006;21.964;2023-10-09T02:34:29;9.10;;;4.30;;
56999;SDS011;42891;50.006;21.964;2023-10-09T02:38:29;8.95;;;4.40;;
56999;SDS011;42891;50.006;21.964;2023-10-09T02:42:33;6.45;;;3.70;;
56999;SDS011;42891;50.006;21.964;2023-10-09T02:46:34;9.15;;;4.65;;
56999;SDS011;42891;50.006;21.964;2023-10-09T02:50:34;6.15;;;4.43;;
56999;SDS011;42891;50.006;21.964;2023-10-09T02:54:38;9.50;;;4.88;;
56999;SDS011;42891;50.006;21.964;2023-10-09T02:58:41;7.90;;;4.70;;
56999;SDS011;42891;50.006;21.964;2023-10-09T03:02:43;7.05;;;4.50;;
56999;SDS011;42891;50.006;21.964;2023-10-09T03:06:43;8.18;;;4.75;;
56999;SDS011;42891;50.006;21.964;2023-10-09T03:10:49;8.00;;;4.63;;
56999;SDS011;42891;50.006;21.964;2023-10-09T03:14:50;7.45;;;4.65;;
56999;SDS011;42891;50.006;21.964;2023-10-09T03:18:53;8.35;;;4.72;;
56999;SDS011;42891;50.006;21.964;2023-10-09T03:22:54;10.00;;;5.30;;
56999;SDS011;42891;50.006;21.964;2023-10-09T03:26:54;9.23;;;4.60;;
56999;SDS011;42891;50.006;21.964;2023-10-09T03:30:57;7.20;;;4.28;;
56999;SDS011;42891;50.006;21.964;2023-10-09T03:35:02;6.80;;;4.20;;
56999;SDS011;42891;50.006;21.964;2023-10-09T03:39:06;9.30;;;4.63;;
56999;SDS011;42891;50.006;21.964;2023-10-09T03:43:25;6.68;;;4.50;;
56999;SDS011;42891;50.006;21.964;2023-10-09T03:47:31;7.57;;;3.85;;
56999;SDS011;42891;50.006;21.964;2023-10-09T03:51:31;9.15;;;3.80;;
56999;SDS011;42891;50.006;21.964;2023-10-09T03:55:33;6.50;;;3.25;;
56999;SDS011;42891;50.006;21.964;2023-10-09T03:59:34;5.72;;;3.40;;
56999;SDS011;42891;50.006;21.964;2023-10-09T04:03:37;6.03;;;3.47;;
56999;SDS011;42891;50.006;21.964;2023-10-09T04:07:38;6.18;;;3.42;;
56999;SDS011;42891;50.006;21.964;2023-10-09T04:11:39;6.22;;;4.03;;
56999;SDS011;42891;50.006;21.964;2023-10-09T04:15:43;7.93;;;4.03;;
56999;SDS011;42891;50.006;21.964;2023-10-09T04:19:43;6.20;;;4.00;;
56999;SDS011;42891;50.006;21.964;2023-10-09T04:24:09;7.07;;;3.92;;
56999;SDS011;42891;50.006;21.964;2023-10-09T04:28:12;6.80;;;4.20;;
56999;SDS011;42891;50.006;21.964;2023-10-09T04:32:15;7.80;;;4.05;;
56999;SDS011;42891;50.006;21.964;2023-10-09T04:36:16;8.10;;;4.53;;
56999;SDS011;42891;50.006;21.964;2023-10-09T04:40:19;8.82;;;5.07;;
56999;SDS011;42891;50.006;21.964;2023-10-09T04:44:42;8.57;;;4.32;;
56999;SDS011;42891;50.006;21.964;2023-10-09T04:49:02;8.35;;;5.07;;
56999;SDS011;42891;50.006;21.964;2023-10-09T04:53:22;7.05;;;4.53;;
56999;SDS011;42891;50.006;21.964;2023-10-09T04:57:23;9.07;;;5.30;;
56999;SDS011;42891;50.006;21.964;2023-10-09T05:01:25;10.70;;;5.03;;
56999;SDS011;42891;50.006;21.964;2023-10-09T05:05:36;12.18;;;4.90;;
56999;SDS011;42891;50.006;21.964;2023-10-09T05:09:42;8.57;;;4.45;;
56999;SDS011;42891;50.006;21.964;2023-10-09T05:13:55;8.00;;;5.03;;
56999;SDS011;42891;50.006;21.964;2023-10-09T05:18:11;10.15;;;5.60;;
56999;SDS011;42891;50.006;21.964;2023-10-09T05:22:16;7.95;;;5.20;;
56999;SDS011;42891;50.006;21.964;2023-10-09T05:26:29;11.93;;;5.32;;
56999;SDS011;42891;50.006;21.964;2023-10-09T05:30:47;9.55;;;5.20;;
56999;SDS011;42891;50.006;21.964;2023-10-09T05:34:55;9.48;;;5.72;;
56999;SDS011;42891;50.006;21.964;2023-10-09T05:38:58;8.02;;;5.10;;
56999;SDS011;42891;50.006;21.964;2023-10-09T05:42:59;8.90;;;5.68;;
56999;SDS011;42891;50.006;21.964;2023-10-09T05:46:59;10.20;;;4.80;;
56999;SDS011;42891;50.006;21.964;2023-10-09T05:51:18;7.25;;;4.53;;
56999;SDS011;42891;50.006;21.964;2023-10-09T05:55:37;8.27;;;4.53;;
56999;SDS011;42891;50.006;21.964;2023-10-09T05:59:56;11.30;;;5.47;;
56999;SDS011;42891;50.006;21.964;2023-10-09T06:04:15;10.23;;;4.55;;
56999;SDS011;42891;50.006;21.964;2023-10-09T06:08:15;7.90;;;4.53;;
56999;SDS011;42891;50.006;21.964;2023-10-09T06:12:24;10.20;;;4.90;;
56999;SDS011;42891;50.006;21.964;2023-10-09T06:16:37;10.70;;;5.10;;
56999;SDS011;42891;50.006;21.964;2023-10-09T06:20:41;8.00;;;5.05;;
56999;SDS011;42891;50.006;21.964;2023-10-09T06:25:00;9.07;;;5.78;;
56999;SDS011;42891;50.006;21.964;2023-10-09T06:29:08;8.32;;;4.65;;
56999;SDS011;42891;50.006;21.964;2023-10-09T06:33:15;9.05;;;5.88;;
56999;SDS011;42891;50.006;21.964;2023-10-09T06:37:29;7.72;;;4.55;;
56999;SDS011;42891;50.006;21.964;2023-10-09T06:41:49;9.05;;;4.82;;
56999;SDS011;42891;50.006;21.964;2023-10-09T06:46:14;8.10;;;4.57;;
56999;SDS011;42891;50.006;21.964;2023-10-09T06:50:37;6.75;;;4.60;;
56999;SDS011;42891;50.006;21.964;2023-10-09T06:54:55;9.93;;;4.43;;
56999;SDS011;42891;50.006;21.964;2023-10-09T06:58:57;7.85;;;4.50;;
56999;SDS011;42891;50.006;21.964;2023-10-09T07:03:15;8.32;;;5.05;;
56999;SDS011;42891;50.006;21.964;2023-10-09T07:07:19;8.77;;;4.90;;
56999;SDS011;42891;50.006;21.964;2023-10-09T07:11:24;15.70;;;7.03;;
56999;SDS011;42891;50.006;21.964;2023-10-09T07:15:47;12.50;;;7.40;;
56999;SDS011;42891;50.006;21.964;2023-10-09T07:20:06;9.55;;;5.45;;
56999;SDS011;42891;50.006;21.964;2023-10-09T07:24:14;7.03;;;5.32;;
56999;SDS011;42891;50.006;21.964;2023-10-09T07:28:17;8.90;;;5.63;;
56999;SDS011;42891;50.006;21.964;2023-10-09T07:32:36;13.15;;;7.13;;
56999;SDS011;42891;50.006;21.964;2023-10-09T07:36:36;11.88;;;6.03;;
56999;SDS011;42891;50.006;21.964;2023-10-09T07:40:41;10.40;;;6.35;;
56999;SDS011;42891;50.006;21.964;2023-10-09T07:45:19;8.82;;;5.18;;
56999;SDS011;42891;50.006;21.964;2023-10-09T07:49:23;9.82;;;5.65;;
56999;SDS011;42891;50.006;21.964;2023-10-09T07:53:26;12.20;;;6.70;;
56999;SDS011;42891;50.006;21.964;2023-10-09T07:57:27;14.43;;;8.55;;
56999;SDS011;42891;50.006;21.964;2023-10-09T08:01:29;12.23;;;7.15;;
56999;SDS011;42891;50.006;21.964;2023-10-09T08:05:35;8.15;;;5.65;;
56999;SDS011;42891;50.006;21.964;2023-10-09T08:09:44;13.68;;;5.60;;
56999;SDS011;42891;50.006;21.964;2023-10-09T08:13:48;8.93;;;5.20;;
56999;SDS011;42891;50.006;21.964;2023-10-09T08:18:00;9.55;;;4.90;;
56999;SDS011;42891;50.006;21.964;2023-10-09T08:22:09;11.15;;;5.38;;
56999;SDS011;42891;50.006;21.964;2023-10-09T08:26:25;11.27;;;5.22;;
56999;SDS011;42891;50.006;21.964;2023-10-09T08:30:29;8.63;;;4.57;;
56999;SDS011;42891;50.006;21.964;2023-10-09T08:34:40;7.20;;;3.95;;
56999;SDS011;42891;50.006;21.964;2023-10-09T08:38:56;9.45;;;5.22;;
56999;SDS011;42891;50.006;21.964;2023-10-09T08:43:01;8.47;;;3.93;;
56999;SDS011;42891;50.006;21.964;2023-10-09T08:47:14;6.28;;;4.05;;
56999;SDS011;42891;50.006;21.964;2023-10-09T08:51:16;8.45;;;4.68;;
56999;SDS011;42891;50.006;21.964;2023-10-09T08:55:18;7.07;;;4.10;;
56999;SDS011;42891;50.006;21.964;2023-10-09T08:59:18;12.23;;;6.43;;
56999;SDS011;42891;50.006;21.964;2023-10-09T09:03:20;16.35;;;7.72;;
56999;SDS011;42891;50.006;21.964;2023-10-09T09:07:26;10.05;;;6.03;;
56999;SDS011;42891;50.006;21.964;2023-10-09T09:15:48;8.60;;;4.90;;
56999;SDS011;42891;50.006;21.964;2023-10-09T09:19:51;10.07;;;5.13;;
56999;SDS011;42891;50.006;21.964;2023-10-09T09:23:55;7.10;;;4.00;;
56999;SDS011;42891;50.006;21.964;2023-10-09T09:27:57;5.35;;;4.00;;
56999;SDS011;42891;50.006;21.964;2023-10-09T09:32:10;5.68;;;3.88;;
56999;SDS011;42891;50.006;21.964;2023-10-09T09:36:18;8.38;;;3.97;;
56999;SDS011;42891;50.006;21.964;2023-10-09T09:40:18;8.52;;;4.50;;
56999;SDS011;42891;50.006;21.964;2023-10-09T09:44:30;9.98;;;5.15;;
56999;SDS011;42891;50.006;21.964;2023-10-09T09:48:37;7.03;;;4.38;;
56999;SDS011;42891;50.006;21.964;2023-10-09T09:52:45;6.38;;;3.55;;
56999;SDS011;42891;50.006;21.964;2023-10-09T09:56:47;6.95;;;3.65;;
56999;SDS011;42891;50.006;21.964;2023-10-09T10:00:51;7.90;;;4.45;;
56999;SDS011;42891;50.006;21.964;2023-10-09T10:04:55;6.28;;;3.83;;
56999;SDS011;42891;50.006;21.964;2023-10-09T10:08:59;5.63;;;3.50;;
56999;SDS011;42891;50.006;21.964;2023-10-09T10:12:59;5.63;;;3.65;;
56999;SDS011;42891;50.006;21.964;2023-10-09T10:17:06;7.70;;;3.75;;
56999;SDS011;42891;50.006;21.964;2023-10-09T10:21:23;7.38;;;3.45;;
56999;SDS011;42891;50.006;21.964;2023-10-09T10:25:33;6.03;;;3.10;;
56999;SDS011;42891;50.006;21.964;2023-10-09T10:29:35;5.63;;;3.53;;
56999;SDS011;42891;50.006;21.964;2023-10-09T10:37:54;5.05;;;3.47;;
56999;SDS011;42891;50.006;21.964;2023-10-09T10:42:14;7.20;;;3.10;;
56999;SDS011;42891;50.006;21.964;2023-10-09T10:46:33;4.25;;;3.10;;
56999;SDS011;42891;50.006;21.964;2023-10-09T10:50:44;5.40;;;2.90;;
56999;SDS011;42891;50.006;21.964;2023-10-09T10:54:45;8.80;;;5.03;;
56999;SDS011;42891;50.006;21.964;2023-10-09T10:58:52;8.20;;;4.13;;
56999;SDS011;42891;50.006;21.964;2023-10-09T11:03:20;5.47;;;3.22;;
56999;SDS011;42891;50.006;21.964;2023-10-09T11:07:29;3.60;;;2.95;;
56999;SDS011;42891;50.006;21.964;2023-10-09T11:11:31;5.20;;;3.28;;
56999;SDS011;42891;50.006;21.964;2023-10-09T11:15:40;9.95;;;4.95;;
56999;SDS011;42891;50.006;21.964;2023-10-09T11:19:56;6.43;;;3.90;;
56999;SDS011;42891;50.006;21.964;2023-10-09T11:23:57;5.75;;;4.30;;
56999;SDS011;42891;50.006;21.964;2023-10-09T11:28:20;6.47;;;4.05;;
56999;SDS011;42891;50.006;21.964;2023-10-09T11:32:29;7.75;;;3.90;;
56999;SDS011;42891;50.006;21.964;2023-10-09T11:36:33;9.68;;;5.22;;
56999;SDS011;42891;50.006;21.964;2023-10-09T11:40:34;6.10;;;3.17;;
56999;SDS011;42891;50.006;21.964;2023-10-09T11:45:07;6.03;;;3.00;;
56999;SDS011;42891;50.006;21.964;2023-10-09T11:49:19;4.65;;;2.38;;
56999;SDS011;42891;50.006;21.964;2023-10-09T11:53:19;4.35;;;3.20;;
56999;SDS011;42891;50.006;21.964;2023-10-09T11:57:23;3.70;;;2.33;;
56999;SDS011;42891;50.006;21.964;2023-10-09T12:01:34;3.90;;;2.20;;
56999;SDS011;42891;50.006;21.964;2023-10-09T12:05:37;3.92;;;2.53;;
56999;SDS011;42891;50.006;21.964;2023-10-09T12:09:37;5.35;;;2.78;;
56999;SDS011;42891;50.006;21.964;2023-10-09T12:13:38;4.03;;;2.58;;
56999;SDS011;42891;50.006;21.964;2023-10-09T12:17:38;3.47;;;2.53;;
56999;SDS011;42891;50.006;21.964;2023-10-09T12:21:44;3.38;;;2.17;;
56999;SDS011;42891;50.006;21.964;2023-10-09T12:25:44;3.22;;;2.35;;
56999;SDS011;42891;50.006;21.964;2023-10-09T12:29:45;3.53;;;2.28;;
56999;SDS011;42891;50.006;21.964;2023-10-09T12:33:46;5.30;;;2.75;;
56999;SDS011;42891;50.006;21.964;2023-10-09T12:37:47;7.30;;;2.70;;
56999;SDS011;42891;50.006;21.964;2023-10-09T12:41:50;5.40;;;2.30;;
56999;SDS011;42891;50.006;21.964;2023-10-09T12:45:53;3.05;;;2.40;;
56999;SDS011;42891;50.006;21.964;2023-10-09T12:49:57;4.28;;;2.75;;
56999;SDS011;42891;50.006;21.964;2023-10-09T12:53:57;2.57;;;1.97;;
56999;SDS011;42891;50.006;21.964;2023-10-09T12:57:59;2.88;;;2.05;;
56999;SDS011;42891;50.006;21.964;2023-10-09T13:02:09;4.13;;;2.45;;
56999;SDS011;42891;50.006;21.964;2023-10-09T13:06:11;2.63;;;2.15;;
56999;SDS011;42891;50.006;21.964;2023-10-09T13:10:11;3.67;;;2.35;;
56999;SDS011;42891;50.006;21.964;2023-10-09T13:14:14;6.63;;;3.30;;
56999;SDS011;42891;50.006;21.964;2023-10-09T13:18:17;3.92;;;2.30;;
56999;SDS011;42891;50.006;21.964;2023-10-09T13:22:17;3.00;;;2.33;;
56999;SDS011;42891;50.006;21.964;2023-10-09T13:26:19;2.65;;;2.10;;
56999;SDS011;42891;50.006;21.964;2023-10-09T13:30:37;2.72;;;2.42;;
56999;SDS011;42891;50.006;21.964;2023-10-09T13:34:49;3.45;;;2.50;;
56999;SDS011;42891;50.006;21.964;2023-10-09T13:38:49;3.55;;;2.83;;
56999;SDS011;42891;50.006;21.964;2023-10-09T13:42:49;2.27;;;2.07;;
56999;SDS011;42891;50.006;21.964;2023-10-09T13:46:50;4.55;;;2.95;;
56999;SDS011;42891;50.006;21.964;2023-10-09T13:50:51;6.38;;;4.22;;
56999;SDS011;42891;50.006;21.964;2023-10-09T13:54:58;8.63;;;4.95;;
56999;SDS011;42891;50.006;21.964;2023-10-09T13:59:15;8.82;;;5.70;;
56999;SDS011;42891;50.006;21.964;2023-10-09T14:03:17;10.20;;;5.20;;
56999;SDS011;42891;50.006;21.964;2023-10-09T14:07:19;12.82;;;7.60;;
56999;SDS011;42891;50.006;21.964;2023-10-09T14:11:20;6.03;;;4.40;;
56999;SDS011;42891;50.006;21.964;2023-10-09T14:15:20;8.25;;;4.50;;
56999;SDS011;42891;50.006;21.964;2023-10-09T14:19:21;7.47;;;4.40;;
56999;SDS011;42891;50.006;21.964;2023-10-09T14:23:21;6.22;;;4.53;;
56999;SDS011;42891;50.006;21.964;2023-10-09T14:27:23;7.93;;;4.60;;
56999;SDS011;42891;50.006;21.964;2023-10-09T14:31:29;9.60;;;6.10;;
56999;SDS011;42891;50.006;21.964;2023-10-09T14:35:32;9.65;;;5.90;;
56999;SDS011;42891;50.006;21.964;2023-10-09T14:39:32;5.15;;;3.47;;
56999;SDS011;42891;50.006;21.964;2023-10-09T14:43:36;5.85;;;4.40;;
56999;SDS011;42891;50.006;21.964;2023-10-09T14:47:37;6.55;;;4.55;;
56999;SDS011;42891;50.006;21.964;2023-10-09T14:51:37;13.38;;;9.63;;
56999;SDS011;42891;50.006;21.964;2023-10-09T14:55:37;7.53;;;4.50;;
56999;SDS011;42891;50.006;21.964;2023-10-09T14:59:38;21.85;;;17.02;;
56999;SDS011;42891;50.006;21.964;2023-10-09T15:03:40;11.48;;;7.35;;
56999;SDS011;42891;50.006;21.964;2023-10-09T15:07:40;8.55;;;4.53;;
56999;SDS011;42891;50.006;21.964;2023-10-09T15:11:41;7.40;;;5.53;;
56999;SDS011;42891;50.006;21.964;2023-10-09T15:15:42;6.70;;;4.18;;
56999;SDS011;42891;50.006;21.964;2023-10-09T15:19:43;9.68;;;6.38;;
56999;SDS011;42891;50.006;21.964;2023-10-09T15:23:45;10.20;;;5.63;;
56999;SDS011;42891;50.006;21.964;2023-10-09T15:27:45;17.13;;;9.70;;
56999;SDS011;42891;50.006;21.964;2023-10-09T15:31:46;11.63;;;7.85;;
56999;SDS011;42891;50.006;21.964;2023-10-09T15:35:47;13.93;;;8.50;;
56999;SDS011;42891;50.006;21.964;2023-10-09T15:39:47;14.00;;;8.45;;
56999;SDS011;42891;50.006;21.964;2023-10-09T15:43:49;16.58;;;12.00;;
56999;SDS011;42891;50.006;21.964;2023-10-09T15:47:51;16.38;;;9.82;;
56999;SDS011;42891;50.006;21.964;2023-10-09T15:51:51;7.78;;;4.50;;
56999;SDS011;42891;50.006;21.964;2023-10-09T15:55:53;6.72;;;5.00;;
56999;SDS011;42891;50.006;21.964;2023-10-09T15:59:57;17.33;;;9.73;;
56999;SDS011;42891;50.006;21.964;2023-10-09T16:03:57;11.90;;;6.63;;
56999;SDS011;42891;50.006;21.964;2023-10-09T16:07:58;12.50;;;7.15;;
56999;SDS011;42891;50.006;21.964;2023-10-09T16:12:00;10.77;;;6.00;;
56999;SDS011;42891;50.006;21.964;2023-10-09T16:16:00;7.30;;;4.43;;
56999;SDS011;42891;50.006;21.964;2023-10-09T16:20:01;8.05;;;4.93;;
56999;SDS011;42891;50.006;21.964;2023-10-09T16:24:02;6.93;;;5.10;;
56999;SDS011;42891;50.006;21.964;2023-10-09T16:28:06;28.20;;;16.65;;
56999;SDS011;42891;50.006;21.964;2023-10-09T16:32:08;37.60;;;22.02;;
56999;SDS011;42891;50.006;21.964;2023-10-09T16:36:11;21.08;;;12.02;;
56999;SDS011;42891;50.006;21.964;2023-10-09T16:40:11;19.60;;;10.38;;
56999;SDS011;42891;50.006;21.964;2023-10-09T16:44:13;18.92;;;9.40;;
56999;SDS011;42891;50.006;21.964;2023-10-09T16:48:16;14.02;;;8.52;;
56999;SDS011;42891;50.006;21.964;2023-10-09T16:52:17;17.20;;;9.60;;
56999;SDS011;42891;50.006;21.964;2023-10-09T16:56:20;13.98;;;8.32;;
56999;SDS011;42891;50.006;21.964;2023-10-09T17:00:22;10.15;;;7.43;;
56999;SDS011;42891;50.006;21.964;2023-10-09T17:04:28;11.68;;;7.78;;
56999;SDS011;42891;50.006;21.964;2023-10-09T17:08:29;11.60;;;7.30;;
56999;SDS011;42891;50.006;21.964;2023-10-09T17:12:30;16.08;;;9.70;;
56999;SDS011;42891;50.006;21.964;2023-10-09T17:16:31;16.38;;;10.43;;
56999;SDS011;42891;50.006;21.964;2023-10-09T17:20:31;10.88;;;7.57;;
56999;SDS011;42891;50.006;21.964;2023-10-09T17:24:32;13.95;;;8.65;;
56999;SDS011;42891;50.006;21.964;2023-10-09T17:28:32;10.43;;;6.88;;
56999;SDS011;42891;50.006;21.964;2023-10-09T17:32:33;13.55;;;7.25;;
56999;SDS011;42891;50.006;21.964;2023-10-09T17:36:35;9.15;;;6.30;;
56999;SDS011;42891;50.006;21.964;2023-10-09T17:40:35;13.00;;;8.68;;
56999;SDS011;42891;50.006;21.964;2023-10-09T17:44:35;11.85;;;7.47;;
56999;SDS011;42891;50.006;21.964;2023-10-09T17:48:38;11.10;;;7.40;;
56999;SDS011;42891;50.006;21.964;2023-10-09T17:52:39;10.38;;;6.95;;
56999;SDS011;42891;50.006;21.964;2023-10-09T17:56:39;11.93;;;7.70;;
56999;SDS011;42891;50.006;21.964;2023-10-09T18:00:42;11.15;;;7.35;;
56999;SDS011;42891;50.006;21.964;2023-10-09T18:04:43;9.25;;;6.85;;
56999;SDS011;42891;50.006;21.964;2023-10-09T18:08:44;14.05;;;8.15;;
56999;SDS011;42891;50.006;21.964;2023-10-09T18:12:46;11.10;;;7.43;;
56999;SDS011;42891;50.006;21.964;2023-10-09T18:16:49;12.63;;;8.00;;
56999;SDS011;42891;50.006;21.964;2023-10-09T18:20:49;12.43;;;6.82;;
56999;SDS011;42891;50.006;21.964;2023-10-09T18:24:50;10.23;;;6.90;;
56999;SDS011;42891;50.006;21.964;2023-10-09T18:28:51;22.40;;;11.48;;
56999;SDS011;42891;50.006;21.964;2023-10-09T18:32:51;12.88;;;8.38;;
56999;SDS011;42891;50.006;21.964;2023-10-09T18:36:56;12.77;;;6.95;;
56999;SDS011;42891;50.006;21.964;2023-10-09T18:40:57;10.98;;;7.45;;
56999;SDS011;42891;50.006;21.964;2023-10-09T18:45:00;13.65;;;8.48;;
56999;SDS011;42891;50.006;21.964;2023-10-09T18:49:01;14.65;;;8.70;;
56999;SDS011;42891;50.006;21.964;2023-10-09T18:53:01;14.15;;;8.65;;
56999;SDS011;42891;50.006;21.964;2023-10-09T18:57:02;21.73;;;9.85;;
56999;SDS011;42891;50.006;21.964;2023-10-09T19:01:03;21.83;;;11.00;;
56999;SDS011;42891;50.006;21.964;2023-10-09T19:05:06;20.98;;;10.18;;
56999;SDS011;42891;50.006;21.964;2023-10-09T19:09:10;16.42;;;9.07;;
56999;SDS011;42891;50.006;21.964;2023-10-09T19:13:12;15.20;;;8.73;;
56999;SDS011;42891;50.006;21.964;2023-10-09T19:17:12;12.80;;;8.30;;
56999;SDS011;42891;50.006;21.964;2023-10-09T19:21:12;13.98;;;8.93;;
56999;SDS011;42891;50.006;21.964;2023-10-09T19:25:14;14.50;;;8.70;;
56999;SDS011;42891;50.006;21.964;2023-10-09T19:29:16;15.88;;;9.80;;
56999;SDS011;42891;50.006;21.964;2023-10-09T19:33:17;19.58;;;10.20;;
56999;SDS011;42891;50.006;21.964;2023-10-09T19:37:17;18.30;;;10.68;;
56999;SDS011;42891;50.006;21.964;2023-10-09T19:41:20;20.48;;;11.35;;
56999;SDS011;42891;50.006;21.964;2023-10-09T19:45:23;19.40;;;11.80;;
56999;SDS011;42891;50.006;21.964;2023-10-09T19:49:23;23.33;;;11.57;;
56999;SDS011;42891;50.006;21.964;2023-10-09T19:53:26;23.77;;;11.82;;
56999;SDS011;42891;50.006;21.964;2023-10-09T19:57:26;22.98;;;12.15;;
56999;SDS011;42891;50.006;21.964;2023-10-09T20:01:31;19.27;;;11.05;;
56999;SDS011;42891;50.006;21.964;2023-10-09T20:05:31;19.00;;;12.50;;
56999;SDS011;42891;50.006;21.964;2023-10-09T20:09:32;23.15;;;13.20;;
56999;SDS011;42891;50.006;21.964;2023-10-09T20:13:35;19.40;;;12.57;;
56999;SDS011;42891;50.006;21.964;2023-10-09T20:17:36;22.15;;;13.13;;
56999;SDS011;42891;50.006;21.964;2023-10-09T20:21:36;19.10;;;12.55;;
56999;SDS011;42891;50.006;21.964;2023-10-09T20:25:37;23.73;;;14.90;;
56999;SDS011;42891;50.006;21.964;2023-10-09T20:29:38;24.00;;;16.00;;
56999;SDS011;42891;50.006;21.964;2023-10-09T20:33:39;27.05;;;17.38;;
56999;SDS011;42891;50.006;21.964;2023-10-09T20:37:42;22.60;;;14.70;;
56999;SDS011;42891;50.006;21.964;2023-10-09T20:41:43;20.20;;;14.63;;
56999;SDS011;42891;50.006;21.964;2023-10-09T20:45:45;25.65;;;16.25;;
56999;SDS011;42891;50.006;21.964;2023-10-09T20:49:46;23.55;;;12.57;;
56999;SDS011;42891;50.006;21.964;2023-10-09T20:53:46;15.85;;;10.60;;
56999;SDS011;42891;50.006;21.964;2023-10-09T20:57:56;14.63;;;10.82;;
56999;SDS011;42891;50.006;21.964;2023-10-09T21:01:57;11.45;;;8.07;;
56999;SDS011;42891;50.006;21.964;2023-10-09T21:06:00;16.30;;;10.38;;
56999;SDS011;42891;50.006;21.964;2023-10-09T21:10:01;17.27;;;11.43;;
56999;SDS011;42891;50.006;21.964;2023-10-09T21:14:01;13.30;;;8.90;;
56999;SDS011;42891;50.006;21.964;2023-10-09T21:18:02;10.32;;;7.45;;
56999;SDS011;42891;50.006;21.964;2023-10-09T21:22:04;10.43;;;7.30;;
56999;SDS011;42891;50.006;21.964;2023-10-09T21:26:04;10.52;;;6.43;;
56999;SDS011;42891;50.006;21.964;2023-10-09T21:30:05;12.10;;;7.88;;
56999;SDS011;42891;50.006;21.964;2023-10-09T21:34:06;11.77;;;8.35;;
56999;SDS011;42891;50.006;21.964;2023-10-09T21:38:06;14.32;;;8.65;;
56999;SDS011;42891;50.006;21.964;2023-10-09T21:42:07;19.70;;;11.52;;
56999;SDS011;42891;50.006;21.964;2023-10-09T21:46:08;27.77;;;16.08;;
56999;SDS011;42891;50.006;21.964;2023-10-09T21:50:09;20.45;;;13.75;;
56999;SDS011;42891;50.006;21.964;2023-10-09T21:54:10;20.13;;;11.57;;
56999;SDS011;42891;50.006;21.964;2023-10-09T21:58:10;11.85;;;9.35;;
56999;SDS011;42891;50.006;21.964;2023-10-09T22:02:10;13.67;;;8.77;;
56999;SDS011;42891;50.006;21.964;2023-10-09T22:06:13;11.43;;;8.57;;
56999;SDS011;42891;50.006;21.964;2023-10-09T22:10:15;13.25;;;9.23;;
56999;SDS011;42891;50.006;21.964;2023-10-09T22:14:15;11.73;;;8.70;;
56999;SDS011;42891;50.006;21.964;2023-10-09T22:18:16;10.45;;;7.88;;
56999;SDS011;42891;50.006;21.964;2023-10-09T22:22:25;11.52;;;7.63;;
56999;SDS011;42891;50.006;21.964;2023-10-09T22:26:26;12.40;;;8.00;;
56999;SDS011;42891;50.006;21.964;2023-10-09T22:30:26;12.48;;;8.38;;
56999;SDS011;42891;50.006;21.964;2023-10-09T22:34:33;11.82;;;8.20;;
56999;SDS011;42891;50.006;21.964;2023-10-09T22:38:36;11.25;;;7.60;;
56999;SDS011;42891;50.006;21.964;2023-10-09T22:42:37;12.47;;;7.20;;
56999;SDS011;42891;50.006;21.964;2023-10-09T22:46:37;15.90;;;11.07;;
56999;SDS011;42891;50.006;21.964;2023-10-09T22:50:43;15.95;;;10.52;;
56999;SDS011;42891;50.006;21.964;2023-10-09T22:54:45;13.57;;;9.83;;
56999;SDS011;42891;50.006;21.964;2023-10-09T22:58:49;13.68;;;9.90;;
56999;SDS011;42891;50.006;21.964;2023-10-09T23:02:52;14.55;;;10.30;;
56999;SDS011;42891;50.006;21.964;2023-10-09T23:06:56;19.25;;;11.98;;
56999;SDS011;42891;50.006;21.964;2023-10-09T23:11:05;15.15;;;11.13;;
56999;SDS011;42891;50.006;21.964;2023-10-09T23:15:08;15.93;;;10.82;;
56999;SDS011;42891;50.006;21.964;2023-10-09T23:19:09;16.73;;;12.07;;
56999;SDS011;42891;50.006;21.964;2023-10-09T23:23:28;20.70;;;12.40;;
56999;SDS011;42891;50.006;21.964;2023-10-09T23:27:29;12.82;;;9.68;;
56999;SDS011;42891;50.006;21.964;2023-10-09T23:31:44;13.57;;;9.13;;
56999;SDS011;42891;50.006;21.964;2023-10-09T23:35:56;14.02;;;9.00;;
56999;SDS011;42891;50.006;21.964;2023-10-09T23:40:06;13.30;;;9.15;;
56999;SDS011;42891;50.006;21.964;2023-10-09T23:44:22;13.48;;;9.15;;
56999;SDS011;42891;50.006;21.964;2023-10-09T23:48:25;11.95;;;8.93;;
56999;SDS011;42891;50.006;21.964;2023-10-09T23:52:26;13.60;;;8.45;;
